Time;durP1;ratioP1;P1;durP2;ratioP2;P2;SDS_P1;SDS_P2;PMS_P1;PMS_P2;Temp;Humidity;BMP_temperature;BMP_pressure;BME280_temperature;BME280_humidity;BME280_pressure;Samples;Min_cycle;Max_cycle;Signal;HPM_P1;HPM_P2
2023/07/29 00:02:17;;;;;;;0.10;0.10;;;;;;;16.26;100.00;95991.03;5032767;28;20041;-76
2023/07/29 00:05:04;;;;;;;0.10;0.10;;;;;;;16.28;100.00;95999.66;5033405;28;20053;-78
2023/07/29 00:07:49;;;;;;;0.10;0.10;;;;;;;16.27;100.00;95983.78;5030801;28;20044;-79
2023/07/29 00:10:37;;;;;;;0.20;0.20;;;;;;;16.27;100.00;95991.88;5031378;28;20639;-77
2023/07/29 00:13:23;;;;;;;0.10;0.10;;;;;;;16.32;100.00;95983.66;5018552;28;20087;-79
2023/07/29 00:16:08;;;;;;;0.20;0.20;;;;;;;16.33;100.00;95979.88;5033890;28;20068;-78
2023/07/29 00:18:54;;;;;;;0.20;0.20;;;;;;;16.30;100.00;95965.06;5030003;28;20044;-79
2023/07/29 00:21:41;;;;;;;0.10;0.10;;;;;;;16.29;100.00;95979.66;5031181;28;20033;-78
2023/07/29 00:24:26;;;;;;;0.17;0.17;;;;;;;16.30;100.00;95986.66;5033955;28;20044;-78
2023/07/29 00:27:12;;;;;;;0.10;0.10;;;;;;;16.20;100.00;95970.66;5031440;28;20051;-78
2023/07/29 00:29:58;;;;;;;0.10;0.10;;;;;;;16.14;100.00;95975.31;5017707;28;20041;-77
2023/07/29 00:32:44;;;;;;;0.10;0.10;;;;;;;16.08;100.00;95973.00;5016277;28;20045;-76
2023/07/29 00:35:32;;;;;;;0.20;0.20;;;;;;;16.08;100.00;95973.00;5036709;28;20434;-77
2023/07/29 00:38:19;;;;;;;0.10;0.10;;;;;;;16.09;100.00;95966.50;5033311;28;20044;-77
2023/07/29 00:41:06;;;;;;;0.10;0.10;;;;;;;16.12;100.00;95965.94;5037459;28;20044;-77
2023/07/29 00:43:52;;;;;;;0.20;0.20;;;;;;;16.12;100.00;95965.94;5022558;28;20044;-78
2023/07/29 00:46:41;;;;;;;0.20;0.20;;;;;;;16.09;100.00;95970.00;5018666;28;20048;-76
2023/07/29 00:49:28;;;;;;;0.10;0.10;;;;;;;16.10;100.00;95965.41;5022118;28;20698;-77
2023/07/29 00:52:13;;;;;;;0.20;0.20;;;;;;;16.13;100.00;95967.53;5034355;28;20044;-76
2023/07/29 00:54:59;;;;;;;0.20;0.20;;;;;;;16.10;100.00;95962.72;5032207;28;20824;-78
2023/07/29 00:57:48;;;;;;;0.20;0.20;;;;;;;16.13;100.00;95959.44;5021210;28;20045;-77
2023/07/29 01:00:34;;;;;;;0.10;0.10;;;;;;;16.12;100.00;95953.25;5005282;28;20053;-76
2023/07/29 01:03:27;;;;;;;0.17;0.17;;;;;;;16.10;100.00;95951.91;5024200;28;20045;-77
2023/07/29 01:06:35;;;;;;;0.10;0.10;;;;;;;16.12;100.00;95947.03;5021456;28;20503;-78
2023/07/29 01:09:48;;;;;;;0.10;0.10;;;;;;;16.07;100.00;95944.41;5035764;28;20041;-77
2023/07/29 01:12:42;;;;;;;0.10;0.10;;;;;;;15.95;100.00;95944.88;5031059;28;20479;-79
2023/07/29 01:16:02;;;;;;;0.17;0.17;;;;;;;15.92;100.00;95941.97;5035527;28;20094;-78
2023/07/29 01:18:52;;;;;;;0.20;0.20;;;;;;;15.92;100.00;95940.06;5023002;28;20032;-77
2023/07/29 01:21:38;;;;;;;0.20;0.20;;;;;;;15.95;100.00;95942.16;5023470;28;20547;-78
2023/07/29 01:24:24;;;;;;;0.20;0.20;;;;;;;15.94;100.00;95942.47;5036793;28;20065;-78
2023/07/29 01:27:10;;;;;;;0.05;0.05;;;;;;;16.01;100.00;95950.97;5018127;28;20044;-77
2023/07/29 01:29:57;;;;;;;0.20;0.20;;;;;;;15.98;100.00;95940.78;5022572;28;20526;-76
2023/07/29 01:33:01;;;;;;;0.20;0.20;;;;;;;16.02;100.00;95931.00;5033236;28;20131;-78
2023/07/29 01:36:04;;;;;;;0.15;0.15;;;;;;;16.03;100.00;95935.28;5036811;28;20186;-78
2023/07/29 01:38:52;;;;;;;0.10;0.10;;;;;;;16.05;100.00;95941.22;5034381;28;20382;-78
2023/07/29 01:41:41;;;;;;;0.20;0.20;;;;;;;16.02;100.00;95928.31;5036572;28;20620;-77
2023/07/29 01:44:28;;;;;;;0.20;0.20;;;;;;;16.03;100.00;95932.59;5019193;28;20044;-78
2023/07/29 01:47:13;;;;;;;0.20;0.20;;;;;;;16.06;100.00;95926.63;5034241;28;20071;-77
2023/07/29 01:49:59;;;;;;;0.10;0.10;;;;;;;16.04;100.00;95918.84;5036939;28;20501;-78
2023/07/29 01:52:45;;;;;;;0.10;0.10;;;;;;;16.03;100.00;95921.81;5035970;28;20036;-80
2023/07/29 01:55:31;;;;;;;0.10;0.10;;;;;;;16.07;100.00;95923.63;5035196;28;20506;-78
2023/07/29 01:58:17;;;;;;;0.20;0.20;;;;;;;16.20;100.00;95926.66;5035544;28;20056;-77
2023/07/29 02:01:06;;;;;;;0.20;0.20;;;;;;;16.21;100.00;95918.28;5036849;28;20049;-78
2023/07/29 02:03:55;;;;;;;0.10;0.10;;;;;;;16.26;100.00;95915.47;5019680;28;20124;-78
2023/07/29 02:06:42;;;;;;;0.20;0.20;;;;;;;16.27;100.00;95903.59;5035810;28;20088;-79
2023/07/29 02:09:27;;;;;;;0.10;0.10;;;;;;;16.16;100.00;95905.66;5035051;28;20128;-79
2023/07/29 02:12:13;;;;;;;0.10;0.10;;;;;;;16.15;100.00;95897.84;5035371;28;20075;-77
2023/07/29 02:14:59;;;;;;;0.10;0.10;;;;;;;16.13;100.00;95884.66;5034294;28;20605;-77
2023/07/29 02:17:45;;;;;;;0.20;0.20;;;;;;;16.10;100.00;95896.03;5034929;28;20446;-77
2023/07/29 02:20:31;;;;;;;0.20;0.20;;;;;;;16.04;100.00;95899.16;5021549;28;20039;-78
2023/07/29 02:23:17;;;;;;;0.10;0.10;;;;;;;16.04;100.00;95904.53;5033948;28;20045;-77
2023/07/29 02:26:03;;;;;;;0.10;0.10;;;;;;;15.99;100.00;95899.22;5035063;28;20624;-79
2023/07/29 02:28:49;;;;;;;0.10;0.10;;;;;;;16.04;100.00;95896.44;5018180;28;20461;-77
2023/07/29 02:31:37;;;;;;;0.17;0.17;;;;;;;16.05;100.00;95895.34;5034199;28;20092;-78
2023/07/29 02:34:23;;;;;;;0.20;0.20;;;;;;;16.07;100.00;95887.75;5034977;28;20103;-77
2023/07/29 02:37:09;;;;;;;0.10;0.10;;;;;;;16.06;100.00;95888.84;5030749;28;21039;-78
2023/07/29 02:39:54;;;;;;;0.20;0.20;;;;;;;16.03;100.00;95884.03;5020807;28;20761;-76
2023/07/29 02:42:40;;;;;;;0.10;0.10;;;;;;;15.96;100.00;95883.63;5016561;28;20855;-77
2023/07/29 02:45:26;;;;;;;0.10;0.10;;;;;;;15.97;100.00;95879.84;5034608;28;20549;-77
2023/07/29 02:48:12;;;;;;;0.20;0.20;;;;;;;15.97;100.00;95882.53;5033524;28;20037;-77
2023/07/29 02:50:58;;;;;;;0.10;0.10;;;;;;;15.97;100.00;95879.84;5034035;28;20485;-77
2023/07/29 02:53:44;;;;;;;0.10;0.10;;;;;;;16.02;100.00;95882.44;5033187;28;20041;-78
2023/07/29 02:56:33;;;;;;;0.17;0.17;;;;;;;16.07;100.00;95875.06;5033004;28;20539;-77
2023/07/29 02:59:19;;;;;;;0.20;0.20;;;;;;;16.08;100.00;95863.16;5020176;28;20056;-78
2023/07/29 03:02:05;;;;;;;0.20;0.20;;;;;;;16.06;100.00;95853.75;5030144;28;20502;-78
2023/07/29 03:04:51;;;;;;;0.20;0.20;;;;;;;15.96;100.00;95852.06;4997156;28;20601;-77
2023/07/29 03:07:37;;;;;;;0.20;0.20;;;;;;;16.03;100.00;95862.44;4992759;28;20050;-77
2023/07/29 03:10:24;;;;;;;0.20;0.20;;;;;;;16.05;100.00;95865.66;4996261;28;20702;-78
2023/07/29 03:13:10;;;;;;;0.10;0.10;;;;;;;16.07;100.00;95861.56;4992892;28;20042;-78
2023/07/29 03:16:05;;;;;;;0.20;0.20;;;;;;;16.09;100.00;95867.44;5004207;28;20042;-79
2023/07/29 03:18:51;;;;;;;0.15;0.15;;;;;;;16.11;100.00;95865.28;5006934;28;20150;-78
2023/07/29 03:21:37;;;;;;;0.10;0.10;;;;;;;16.16;100.00;95864.38;4996158;28;20050;-79
2023/07/29 03:24:23;;;;;;;0.10;0.10;;;;;;;16.17;100.00;95871.34;5006709;28;20539;-78
2023/07/29 03:27:09;;;;;;;0.20;0.20;;;;;;;16.17;100.00;95871.34;4993568;28;20053;-76
2023/07/29 03:29:55;;;;;;;0.20;0.20;;;;;;;16.20;100.00;95861.88;4993670;28;20360;-78
2023/07/29 03:32:45;;;;;;;0.10;0.10;;;;;;;16.27;100.00;95867.69;4989742;28;20038;-78
2023/07/29 03:35:31;;;;;;;0.20;0.20;;;;;;;16.29;100.00;95865.50;5005981;28;20038;-77
2023/07/29 03:38:17;;;;;;;0.20;0.20;;;;;;;16.30;100.00;95865.19;5004892;28;20435;-77
2023/07/29 03:41:03;;;;;;;0.10;0.10;;;;;;;16.35;100.00;95865.09;5004717;28;20046;-77
2023/07/29 03:43:49;;;;;;;0.13;0.13;;;;;;;16.36;100.00;95850.50;5003869;28;20076;-78
2023/07/29 03:46:35;;;;;;;0.17;0.17;;;;;;;16.34;100.00;95865.38;4990072;28;20080;-77
2023/07/29 03:49:22;;;;;;;0.20;0.20;;;;;;;16.32;100.00;95849.47;4989378;28;20050;-76
2023/07/29 03:52:08;;;;;;;0.20;0.20;;;;;;;16.27;100.00;95846.91;4987879;28;20049;-76
2023/07/29 03:54:53;;;;;;;0.20;0.20;;;;;;;16.33;100.00;95863.78;4990790;28;20097;-77
2023/07/29 03:57:39;;;;;;;0.20;0.20;;;;;;;16.40;100.00;95856.09;5005086;28;20046;-77
2023/07/29 04:00:26;;;;;;;0.10;0.10;;;;;;;16.39;100.00;95858.00;5005402;28;20481;-76
2023/07/29 04:03:12;;;;;;;0.13;0.13;;;;;;;16.39;100.00;95858.00;4998706;28;20049;-78
2023/07/29 04:05:58;;;;;;;0.15;0.15;;;;;;;16.36;100.00;95853.19;5018077;28;20764;-77
2023/07/29 04:08:44;;;;;;;0.17;0.17;;;;;;;16.41;100.00;95858.47;5020840;28;20077;-77
2023/07/29 04:11:30;;;;;;;0.15;0.15;;;;;;;16.43;100.00;95856.31;5027048;28;20045;-78
2023/07/29 04:14:16;;;;;;;0.20;0.20;;;;;;;16.45;100.00;95853.28;5033867;28;20049;-76
2023/07/29 04:17:02;;;;;;;0.15;0.15;;;;;;;16.47;100.00;95847.59;5006344;28;20045;-77
2023/07/29 04:19:50;;;;;;;0.10;0.10;;;;;;;16.48;100.00;95858.09;5037803;28;20044;-76
2023/07/29 04:22:37;;;;;;;0.10;0.10;;;;;;;16.42;100.00;95854.69;5020334;28;20060;-76
2023/07/29 04:25:23;;;;;;;0.10;0.10;;;;;;;16.46;100.00;95854.09;5034150;28;20041;-77
2023/07/29 04:28:09;;;;;;;0.10;0.10;;;;;;;16.47;100.00;95861.09;5023312;28;20041;-78
2023/07/29 04:30:55;;;;;;;0.20;0.20;;;;;;;16.50;100.00;95861.31;5037206;28;20600;-76
2023/07/29 04:33:41;;;;;;;0.20;0.20;;;;;;;16.55;100.00;95857.69;5038903;28;20056;-78
2023/07/29 04:36:27;;;;;;;0.20;0.20;;;;;;;16.53;100.00;95854.50;5022944;28;20147;-76
2023/07/29 04:39:13;;;;;;;0.13;0.13;;;;;;;16.52;100.00;95847.50;5037408;28;20068;-77
2023/07/29 04:42:00;;;;;;;0.20;0.20;;;;;;;16.59;100.00;95843.28;5037305;28;20118;-76
2023/07/29 04:44:46;;;;;;;0.20;0.20;;;;;;;16.61;100.00;95848.38;5022322;28;20052;-76
2023/07/29 04:47:32;;;;;;;0.20;0.20;;;;;;;16.64;100.00;95850.47;5039444;28;20132;-77
2023/07/29 04:50:18;;;;;;;0.20;0.20;;;;;;;16.71;100.00;95845.50;5020747;28;20037;-78
2023/07/29 04:53:04;;;;;;;0.20;0.20;;;;;;;16.74;100.00;95850.31;5033726;28;20056;-77
2023/07/29 04:55:50;;;;;;;0.10;0.10;;;;;;;16.87;100.00;95854.09;5023445;28;20419;-79
2023/07/29 04:58:35;;;;;;;0.10;0.10;;;;;;;16.89;100.00;95850.00;5036792;28;20044;-78
2023/07/29 05:01:22;;;;;;;0.15;0.15;;;;;;;16.87;100.00;95841.38;5037316;28;20140;-77
2023/07/29 05:04:08;;;;;;;0.10;0.10;;;;;;;16.90;100.00;95843.47;5019957;28;20049;-77
2023/07/29 05:06:54;;;;;;;0.10;0.10;;;;;;;16.85;100.00;95846.28;5036441;28;20037;-78
2023/07/29 05:09:40;;;;;;;0.10;0.10;;;;;;;16.82;100.00;95846.91;5020790;28;20114;-76
2023/07/29 05:12:26;;;;;;;0.10;0.10;;;;;;;16.82;100.00;95841.50;5037136;28;20522;-77
2023/07/29 05:15:12;;;;;;;0.20;0.20;;;;;;;16.88;100.00;95850.28;5037485;28;20098;-77
2023/07/29 05:17:58;;;;;;;0.10;0.10;;;;;;;16.87;100.00;95849.47;5023649;28;20402;-76
2023/07/29 05:20:44;;;;;;;0.20;0.20;;;;;;;16.86;100.00;95852.50;5024244;28;20063;-78
2023/07/29 05:23:30;;;;;;;0.20;0.20;;;;;;;16.87;100.00;95848.69;5038967;28;20033;-76
2023/07/29 05:26:15;;;;;;;0.20;0.20;;;;;;;16.83;100.00;95853.91;5037401;28;20084;-78
2023/07/29 05:29:01;;;;;;;0.20;0.20;;;;;;;16.87;100.00;95859.50;5035724;28;20037;-77
2023/07/29 05:31:48;;;;;;;0.10;0.10;;;;;;;16.92;100.00;95856.69;5022382;28;20048;-78
2023/07/29 05:34:33;;;;;;;0.10;0.10;;;;;;;17.08;100.00;95849.84;5031192;28;20124;-77
2023/07/29 05:37:20;;;;;;;0.25;0.25;;;;;;;17.17;100.00;95845.31;5019773;28;20765;-76
2023/07/29 05:40:07;;;;;;;0.10;0.10;;;;;;;17.43;100.00;95850.13;5034408;28;20040;-76
2023/07/29 05:42:53;;;;;;;0.20;0.20;;;;;;;17.50;100.00;95856.69;5019567;28;20524;-77
2023/07/29 05:45:39;;;;;;;0.20;0.20;;;;;;;17.46;100.00;95849.53;5036888;28;20450;-77
2023/07/29 05:48:27;;;;;;;0.20;0.20;;;;;;;17.41;100.00;95852.34;5010827;28;20140;-78
2023/07/29 05:51:13;;;;;;;0.20;0.20;;;;;;;17.27;100.00;95853.22;5035917;28;20056;-75
2023/07/29 05:54:00;;;;;;;0.10;0.10;;;;;;;17.29;100.00;95869.13;5034735;28;20139;-78
2023/07/29 05:56:45;;;;;;;0.20;0.20;;;;;;;17.34;100.00;95866.28;5022660;28;20044;-76
2023/07/29 05:59:32;;;;;;;0.10;0.10;;;;;;;17.36;100.00;95866.81;5019235;28;20033;-76
2023/07/29 06:02:18;;;;;;;0.20;0.20;;;;;;;17.41;100.00;95871.28;5033859;28;20051;-78
2023/07/29 06:05:04;;;;;;;0.20;0.20;;;;;;;17.35;100.00;95867.06;5019214;28;20049;-77
2023/07/29 06:07:51;;;;;;;0.10;0.10;;;;;;;17.24;100.00;95870.03;5033794;28;20050;-77
2023/07/29 06:10:37;;;;;;;0.17;0.17;;;;;;;17.18;100.00;95848.81;5023374;28;20174;-78
2023/07/29 06:13:23;;;;;;;0.10;0.10;;;;;;;17.10;100.00;95844.94;5017706;28;20120;-78
2023/07/29 06:16:09;;;;;;;0.15;0.15;;;;;;;17.16;100.00;95857.22;5026074;28;20384;-79
2023/07/29 06:18:57;;;;;;;0.20;0.20;;;;;;;17.26;100.00;95858.91;5022132;28;20044;-78
2023/07/29 06:21:43;;;;;;;0.10;0.10;;;;;;;17.37;100.00;95857.56;5019031;28;20068;-78
2023/07/29 06:24:29;;;;;;;0.10;0.10;;;;;;;17.50;100.00;95858.63;5024357;28;20041;-76
2023/07/29 06:27:14;;;;;;;0.15;0.15;;;;;;;17.63;100.00;95844.25;5034580;28;20195;-77
2023/07/29 06:30:00;;;;;;;0.10;0.10;;;;;;;17.72;100.00;95841.63;5036669;28;20047;-78
2023/07/29 06:32:46;;;;;;;0.15;0.15;;;;;;;17.72;100.00;95833.50;5034776;28;20044;-77
2023/07/29 06:35:32;;;;;;;0.10;0.10;;;;;;;17.69;100.00;95834.91;5035293;28;20387;-77
2023/07/29 06:38:21;;;;;;;0.10;0.10;;;;;;;17.65;100.00;95833.91;5035400;28;20048;-78
2023/07/29 06:41:07;;;;;;;0.20;0.20;;;;;;;17.66;100.00;95848.22;5036320;28;20126;-77
2023/07/29 06:43:56;;;;;;;0.17;0.17;;;;;;;17.63;100.00;95848.84;5035683;28;20554;-77
2023/07/29 06:46:42;;;;;;;0.15;0.15;;;;;;;17.54;100.00;95844.19;5037128;28;20589;-76
2023/07/29 06:49:27;;;;;;;0.10;0.10;;;;;;;17.66;100.00;95842.81;5035861;28;20114;-76
2023/07/29 06:52:13;;;;;;;0.15;0.15;;;;;;;17.68;100.00;95849.53;5033082;28;20041;-76
2023/07/29 06:54:59;;;;;;;0.10;0.10;;;;;;;17.80;100.00;95854.41;5034171;28;20041;-78
2023/07/29 06:57:48;;;;;;;0.15;0.15;;;;;;;17.82;100.00;95854.91;5032946;28;20052;-77
2023/07/29 07:00:34;;;;;;;0.17;0.17;;;;;;;17.96;100.00;95869.16;5034506;28;20853;-76
2023/07/29 07:03:19;;;;;;;0.20;0.20;;;;;;;18.00;100.00;95872.84;5030921;28;20483;-78
2023/07/29 07:06:08;;;;;;;0.20;0.20;;;;;;;18.17;100.00;95869.44;5033561;28;20118;-77
2023/07/29 07:08:53;;;;;;;0.10;0.10;;;;;;;18.32;100.00;95871.72;5021861;28;20033;-76
2023/07/29 07:11:39;;;;;;;0.17;0.17;;;;;;;18.29;100.00;95872.38;5035386;28;20041;-77
2023/07/29 07:14:25;;;;;;;0.20;0.20;;;;;;;18.31;100.00;95874.75;5019754;28;20124;-75
2023/07/29 07:17:11;;;;;;;0.20;0.20;;;;;;;18.27;100.00;95876.47;5036116;28;20041;-76
2023/07/29 07:19:57;;;;;;;0.20;0.20;;;;;;;18.32;100.00;95879.06;5034352;28;20123;-78
2023/07/29 07:22:43;;;;;;;0.20;0.20;;;;;;;18.44;100.00;95884.69;5023133;28;20040;-77
2023/07/29 07:25:28;;;;;;;0.20;0.20;;;;;;;18.47;100.00;95886.78;5037475;28;20443;-78
2023/07/29 07:28:14;;;;;;;0.20;0.20;;;;;;;18.68;100.00;95897.06;5032837;28;20045;-79
2023/07/29 07:31:02;;;;;;;0.13;0.13;;;;;;;18.72;100.00;95889.94;5033823;28;20075;-77
2023/07/29 07:33:48;;;;;;;0.13;0.13;;;;;;;18.94;100.00;95887.13;5034808;28;20041;-78
2023/07/29 07:36:34;;;;;;;0.10;0.10;;;;;;;19.01;100.00;95871.19;5033936;28;20033;-78
2023/07/29 07:39:20;;;;;;;0.10;0.10;;;;;;;19.09;100.00;95883.19;5033874;28;20119;-78
2023/07/29 07:42:06;;;;;;;0.10;0.10;;;;;;;19.13;100.00;95874.06;5031663;28;20079;-78
2023/07/29 07:44:52;;;;;;;0.10;0.10;;;;;;;19.29;100.00;95877.13;5039281;28;20040;-79
2023/07/29 07:47:37;;;;;;;0.10;0.10;;;;;;;19.13;100.00;95871.34;5039289;28;20781;-78
2023/07/29 07:50:24;;;;;;;0.10;0.10;;;;;;;19.15;100.00;95873.78;5024549;28;20037;-78
2023/07/29 07:53:09;;;;;;;0.10;0.10;;;;;;;19.57;100.00;95869.50;5034726;28;20037;-79
2023/07/29 07:55:55;;;;;;;0.10;0.10;;;;;;;19.84;100.00;95867.56;5038530;28;20495;-78
2023/07/29 07:58:41;;;;;;;0.10;0.10;;;;;;;20.31;100.00;95880.09;5036096;28;20550;-78
2023/07/29 08:01:27;;;;;;;0.20;0.20;;;;;;;20.66;100.00;95874.56;5038519;28;20473;-77
2023/07/29 08:04:13;;;;;;;0.10;0.10;;;;;;;20.39;100.00;95869.50;5037640;28;20048;-78
2023/07/29 08:06:58;;;;;;;0.15;0.15;;;;;;;20.08;100.00;95862.44;5037515;28;20578;-78
2023/07/29 08:09:44;;;;;;;0.10;0.10;;;;;;;20.25;100.00;95867.81;5036974;28;20471;-77
2023/07/29 08:12:30;;;;;;;0.10;0.10;;;;;;;20.61;100.00;95860.34;5039260;28;20063;-78
2023/07/29 08:15:16;;;;;;;0.13;0.13;;;;;;;21.36;100.00;95874.97;5037263;28;20523;-77
2023/07/29 08:18:02;;;;;;;0.20;0.20;;;;;;;21.16;100.00;95881.94;5036339;28;20594;-77
2023/07/29 08:20:55;;;;;;;0.20;0.20;;;;;;;20.84;100.00;95881.50;5037075;28;20041;-79
2023/07/29 08:23:41;;;;;;;0.20;0.20;;;;;;;20.95;100.00;95876.50;5038287;28;20478;-77
2023/07/29 08:26:27;;;;;;;0.10;0.10;;;;;;;20.85;100.00;95883.13;5039887;28;20118;-76
2023/07/29 08:29:13;;;;;;;0.17;0.17;;;;;;;20.83;100.00;95882.63;5037999;28;20041;-75
2023/07/29 08:32:01;;;;;;;0.10;0.10;;;;;;;20.94;100.00;95891.22;5037055;28;20348;-78
2023/07/29 08:34:47;;;;;;;0.10;0.10;;;;;;;20.64;100.00;95884.97;5038646;28;20045;-77
2023/07/29 08:37:33;;;;;;;0.20;0.20;;;;;;;20.42;100.00;95891.41;5038817;28;20041;-77
2023/07/29 08:40:27;;;;;;;0.20;0.20;;;;;;;20.52;100.00;95893.00;5037961;28;20382;-77
2023/07/29 08:43:16;;;;;;;0.13;0.13;;;;;;;20.83;100.00;95882.63;5034743;28;20073;-77
2023/07/29 08:46:02;;;;;;;0.10;0.10;;;;;;;20.98;100.00;95885.91;5036848;28;20041;-79
2023/07/29 08:48:49;;;;;;;0.10;0.10;;;;;;;20.63;100.00;95885.28;5036478;28;20063;-78
2023/07/29 08:51:36;;;;;;;0.20;0.20;;;;;;;20.72;100.00;95881.41;5039338;28;20104;-77
2023/07/29 08:54:22;;;;;;;0.10;0.10;;;;;;;20.61;100.00;95888.31;5035479;28;20133;-77
2023/07/29 08:57:09;;;;;;;0.10;0.10;;;;;;;20.54;100.00;95888.03;5033986;28;20106;-78
2023/07/29 08:59:55;;;;;;;0.30;0.30;;;;;;;20.84;100.00;95881.50;5035396;28;20040;-78
2023/07/29 09:02:41;;;;;;;0.20;0.20;;;;;;;21.63;100.00;95892.69;5038556;28;20052;-76
2023/07/29 09:05:27;;;;;;;0.13;0.13;;;;;;;22.08;100.00;95886.56;5037528;28;20127;-76
2023/07/29 09:08:13;;;;;;;0.20;0.20;;;;;;;22.01;100.00;95878.09;5036770;28;20082;-76
2023/07/29 09:11:02;;;;;;;0.10;0.10;;;;;;;21.44;100.00;95881.47;5036964;28;20513;-79
2023/07/29 09:13:47;;;;;;;0.10;0.10;;;;;;;21.26;100.00;95891.66;5023226;28;20059;-78
2023/07/29 09:16:34;;;;;;;0.10;0.10;;;;;;;20.81;100.00;95886.81;5037057;28;20094;-77
2023/07/29 09:19:20;;;;;;;0.10;0.10;;;;;;;20.69;100.00;95892.91;5023227;28;20385;-78
2023/07/29 09:22:17;;;;;;;0.10;0.10;;;;;;;20.46;100.00;95892.38;5035633;28;20513;-77
2023/07/29 09:25:03;;;;;;;0.10;0.10;;;;;;;20.27;100.00;95903.59;5035701;28;20052;-78
2023/07/29 09:27:49;;;;;;;0.10;0.10;;;;;;;20.12;100.00;95908.75;5036721;28;20066;-79
2023/07/29 09:30:35;;;;;;;0.20;0.20;;;;;;;20.07;100.00;95904.25;5037046;28;20599;-78
2023/07/29 09:33:21;;;;;;;0.20;0.20;;;;;;;20.15;100.00;95900.72;5036249;28;20076;-78
2023/07/29 09:36:10;;;;;;;0.10;0.10;;;;;;;20.49;100.00;95890.94;5037391;28;20053;-77
2023/07/29 09:38:56;;;;;;;0.10;0.10;;;;;;;20.83;100.00;95896.22;5035831;28;20037;-77
2023/07/29 09:41:49;;;;;;;0.20;0.20;;;;;;;21.19;100.00;95883.22;5035528;28;20409;-79
2023/07/29 09:44:38;;;;;;;0.10;0.10;;;;;;;21.62;100.00;95886.44;5034228;28;20045;-76
2023/07/29 09:47:25;;;;;;;0.20;0.20;;;;;;;21.54;100.00;95875.63;5034627;28;20147;-76
2023/07/29 09:50:11;;;;;;;0.10;0.10;;;;;;;21.80;100.00;95873.50;5037085;28;20044;-77
2023/07/29 09:53:00;;;;;;;0.10;0.10;;;;;;;21.54;100.00;95887.31;5036485;28;20756;-77
2023/07/29 09:55:51;;;;;;;0.10;0.10;;;;;;;20.90;100.00;95878.59;5035147;28;20500;-78
2023/07/29 09:58:38;;;;;;;0.10;0.10;;;;;;;20.29;100.00;95897.81;5036587;28;20536;-77
2023/07/29 10:01:24;;;;;;;0.10;0.10;;;;;;;19.73;100.00;95897.75;5035160;28;20079;-77
2023/07/29 10:04:10;;;;;;;0.10;0.10;;;;;;;19.42;100.00;95911.44;5035851;28;20079;-78
2023/07/29 10:06:57;;;;;;;0.10;0.10;;;;;;;19.21;100.00;95915.88;5032489;28;20041;-78
2023/07/29 10:09:45;;;;;;;0.20;0.20;;;;;;;18.91;100.00;95928.44;5033147;28;20111;-77
2023/07/29 10:12:32;;;;;;;0.10;0.10;;;;;;;18.84;100.00;95925.38;5034725;28;20052;-77
2023/07/29 10:15:18;;;;;;;0.20;0.20;;;;;;;18.87;100.00;95930.16;5033384;28;20592;-76
2023/07/29 10:18:05;;;;;;;0.10;0.10;;;;;;;18.90;100.00;95929.50;5034944;28;20645;-78
2023/07/29 10:20:53;;;;;;;0.10;0.10;;;;;;;18.96;100.00;95939.09;5034156;28;20647;-77
2023/07/29 10:23:49;;;;;;;0.10;0.10;;;;;;;19.21;100.00;95935.66;5031495;28;20044;-77
2023/07/29 10:26:39;;;;;;;0.20;0.20;;;;;;;19.43;100.00;95937.47;5038501;28;20549;-79
2023/07/29 10:29:38;;;;;;;0.10;0.10;;;;;;;19.57;100.00;95940.06;5022659;28;20052;-76
2023/07/29 10:32:26;;;;;;;0.10;0.10;;;;;;;20.00;100.00;95947.44;5034256;28;20041;-77
2023/07/29 10:35:17;;;;;;;0.20;0.20;;;;;;;20.02;100.00;95942.47;5036141;28;20106;-75
2023/07/29 10:38:04;;;;;;;0.10;0.10;;;;;;;20.13;100.00;95941.00;5019518;28;20568;-76
2023/07/29 10:40:59;;;;;;;0.20;0.20;;;;;;;20.71;100.00;95936.91;5034262;28;20516;-76
2023/07/29 10:43:45;;;;;;;0.20;0.20;;;;;;;21.69;100.00;95937.66;5033450;28;20062;-76
2023/07/29 10:46:34;;;;;;;0.20;0.20;;;;;;;22.09;100.00;95937.97;5035567;28;20040;-76
2023/07/29 10:49:23;;;;;;;0.13;0.13;;;;;;;22.99;100.00;95933.66;5035724;28;20056;-78
2023/07/29 10:52:14;;;;;;;0.20;0.20;;;;;;;23.75;100.00;95935.66;5035802;28;20041;-78
2023/07/29 10:55:01;;;;;;;0.20;0.20;;;;;;;23.76;100.00;95936.47;5038137;28;20110;-78
2023/07/29 10:57:47;;;;;;;0.10;0.10;;;;;;;23.69;100.00;95934.31;5034826;28;20132;-76
2023/07/29 11:00:33;;;;;;;0.20;0.20;;;;;;;23.29;100.00;95931.50;5036176;28;20498;-78
2023/07/29 11:03:19;;;;;;;0.10;0.10;;;;;;;23.65;100.00;95938.06;5035155;28;20103;-78
2023/07/29 11:06:05;;;;;;;0.15;0.15;;;;;;;24.14;100.00;95928.59;5035894;28;20098;-78
2023/07/29 11:08:52;;;;;;;0.20;0.20;;;;;;;24.58;100.00;95934.06;5035576;28;20627;-78
2023/07/29 11:11:39;;;;;;;0.20;0.20;;;;;;;24.50;100.00;95926.81;5036748;28;20060;-76
2023/07/29 11:14:24;;;;;;;0.22;0.22;;;;;;;24.60;100.00;95922.81;5036670;28;20102;-77
2023/07/29 11:17:10;;;;;;;0.20;0.20;;;;;;;25.48;100.00;95920.66;5033979;28;20056;-76
2023/07/29 11:20:00;;;;;;;0.20;0.20;;;;;;;26.09;100.00;95918.06;5034650;28;20049;-77
2023/07/29 11:22:45;;;;;;;0.17;0.17;;;;;;;26.34;92.89;95921.28;5033881;28;20036;-76
2023/07/29 11:25:33;;;;;;;0.20;0.20;;;;;;;25.98;96.33;95924.47;5036338;28;20047;-76
2023/07/29 11:28:19;;;;;;;0.20;0.20;;;;;;;28.43;86.41;95926.88;5033719;28;20067;-78
2023/07/29 11:31:05;;;;;;;0.10;0.10;;;;;;;27.73;85.26;95922.84;5033416;28;20498;-78
2023/07/29 11:33:51;;;;;;;0.13;0.13;;;;;;;30.35;72.76;95922.81;5034598;28;20467;-79
2023/07/29 11:36:37;;;;;;;0.20;0.20;;;;;;;29.38;72.03;95929.72;5023037;28;20052;-78
2023/07/29 11:39:23;;;;;;;0.30;0.30;;;;;;;32.84;57.02;95916.13;5021267;28;20369;-76
2023/07/29 11:42:12;;;;;;;0.13;0.13;;;;;;;32.50;52.26;95912.38;5034596;28;20550;-77
2023/07/29 11:44:58;;;;;;;0.10;0.10;;;;;;;30.95;59.79;95913.06;5038068;28;20055;-79
2023/07/29 11:47:45;;;;;;;0.20;0.20;;;;;;;30.97;72.14;95918.97;5034750;28;20362;-77
2023/07/29 11:50:31;;;;;;;0.10;0.10;;;;;;;28.84;77.93;95933.16;5032118;28;20049;-79
2023/07/29 11:53:17;;;;;;;0.05;0.05;;;;;;;26.93;88.26;95920.03;5030902;28;20045;-76
2023/07/29 11:56:03;;;;;;;0.10;0.10;;;;;;;26.92;91.58;95923.13;5034812;28;20788;-79
2023/07/29 11:58:49;;;;;;;0.20;0.20;;;;;;;30.70;70.22;95910.28;4985010;28;20071;-79
2023/07/29 12:01:35;;;;;;;0.10;0.10;;;;;;;32.68;53.75;95905.53;5010773;28;20053;-80
2023/07/29 12:04:21;;;;;;;0.10;0.10;;;;;;;30.78;72.64;95909.09;5015073;28;20140;-77
2023/07/29 12:07:08;;;;;;;0.05;0.05;;;;;;;28.21;83.57;95920.31;5013594;28;20767;-77
2023/07/29 12:09:57;;;;;;;0.10;0.10;;;;;;;27.21;88.14;95910.69;5016306;28;20036;-79
2023/07/29 12:12:47;;;;;;;0.10;0.10;;;;;;;25.91;90.56;95918.84;5012952;28;20057;-79
2023/07/29 12:15:33;;;;;;;0.10;0.10;;;;;;;24.67;100.00;95910.09;5015950;28;20529;-76
2023/07/29 12:18:18;;;;;;;0.08;0.08;;;;;;;24.12;100.00;95919.94;4993948;28;20131;-79
2023/07/29 12:21:04;;;;;;;0.10;0.10;;;;;;;23.76;100.00;95911.88;5012788;28;20494;-78
2023/07/29 12:23:51;;;;;;;0.10;0.10;;;;;;;23.62;100.00;95913.03;5014135;28;20068;-79
2023/07/29 12:26:37;;;;;;;0.20;0.20;;;;;;;25.67;97.94;95906.19;5011583;28;20598;-76
2023/07/29 12:29:23;;;;;;;0.10;0.10;;;;;;;25.82;89.80;95911.63;5000911;28;20037;-79
2023/07/29 12:32:09;;;;;;;0.15;0.15;;;;;;;25.28;90.98;95915.09;5030095;28;20606;-78
2023/07/29 12:34:55;;;;;;;0.10;0.10;;;;;;;29.24;70.85;95912.28;5039656;28;20410;-77
2023/07/29 12:37:43;;;;;;;0.20;0.20;;;;;;;28.92;79.31;95906.53;5002194;28;20045;-80
2023/07/29 12:40:29;;;;;;;0.20;0.20;;;;;;;28.83;79.33;95906.81;5005774;28;20044;-77
2023/07/29 12:43:15;;;;;;;0.10;0.10;;;;;;;27.33;89.86;95906.94;5021330;28;20045;-78
2023/07/29 12:46:01;;;;;;;0.10;0.10;;;;;;;26.52;90.21;95905.19;5006933;28;20127;-77
2023/07/29 12:48:47;;;;;;;0.20;0.20;;;;;;;31.29;70.61;95903.25;5022930;28;20025;-77
2023/07/29 12:51:37;;;;;;;0.20;0.20;;;;;;;36.42;42.09;95887.81;5021094;28;20747;-80
2023/07/29 12:54:23;;;;;;;0.10;0.10;;;;;;;32.77;57.21;95902.34;5011694;28;20043;-78
2023/07/29 12:57:08;;;;;;;0.10;0.10;;;;;;;30.42;69.24;95902.69;5028718;28;21031;-77
2023/07/29 12:59:54;;;;;;;0.10;0.10;;;;;;;28.49;81.20;95904.16;5036556;28;20033;-78